sensor_id;sensor_type;location;lat;lon;timestamp;temperature;humidity
23371;DHT22;11858;51.056;3.712;2023-06-10T00:01:37;24.60;90.40
23371;DHT22;11858;51.056;3.712;2023-06-10T00:04:03;24.60;90.40
23371;DHT22;11858;51.056;3.712;2023-06-10T00:06:30;24.50;90.40
23371;DHT22;11858;51.056;3.712;2023-06-10T00:09:04;24.40;90.60
23371;DHT22;11858;51.056;3.712;2023-06-10T00:11:31;24.50;90.90
23371;DHT22;11858;51.056;3.712;2023-06-10T00:13:57;24.30;91.30
23371;DHT22;11858;51.056;3.712;2023-06-10T00:16:23;24.10;91.70
23371;DHT22;11858;51.056;3.712;2023-06-10T00:18:49;24.10;92.00
23371;DHT22;11858;51.056;3.712;2023-06-10T00:21:16;24.10;92.30
23371;DHT22;11858;51.056;3.712;2023-06-10T00:23:42;24.10;92.30
23371;DHT22;11858;51.056;3.712;2023-06-10T00:26:09;24.20;92.30
23371;DHT22;11858;51.056;3.712;2023-06-10T00:28:35;24.10;92.60
23371;DHT22;11858;51.056;3.712;2023-06-10T00:31:01;24.00;92.80
23371;DHT22;11858;51.056;3.712;2023-06-10T00:33:27;24.20;92.40
23371;DHT22;11858;51.056;3.712;2023-06-10T00:35:53;24.10;92.80
23371;DHT22;11858;51.056;3.712;2023-06-10T00:38:19;24.00;92.90
23371;DHT22;11858;51.056;3.712;2023-06-10T00:40:44;23.90;93.20
23371;DHT22;11858;51.056;3.712;2023-06-10T00:43:10;23.80;93.60
23371;DHT22;11858;51.056;3.712;2023-06-10T00:45:36;23.80;93.80
23371;DHT22;11858;51.056;3.712;2023-06-10T00:48:02;23.90;93.90
23371;DHT22;11858;51.056;3.712;2023-06-10T00:50:29;23.80;94.20
23371;DHT22;11858;51.056;3.712;2023-06-10T00:52:56;23.60;94.60
23371;DHT22;11858;51.056;3.712;2023-06-10T00:55:23;23.50;94.90
23371;DHT22;11858;51.056;3.712;2023-06-10T00:57:49;23.60;95.20
23371;DHT22;11858;51.056;3.712;2023-06-10T01:00:15;23.50;95.40
23371;DHT22;11858;51.056;3.712;2023-06-10T01:02:41;23.50;95.70
23371;DHT22;11858;51.056;3.712;2023-06-10T01:05:09;23.50;96.00
23371;DHT22;11858;51.056;3.712;2023-06-10T01:07:43;23.40;96.00
23371;DHT22;11858;51.056;3.712;2023-06-10T01:10:24;23.40;96.30
23371;DHT22;11858;51.056;3.712;2023-06-10T01:13:00;23.40;96.60
23371;DHT22;11858;51.056;3.712;2023-06-10T01:15:33;23.30;96.90
23371;DHT22;11858;51.056;3.712;2023-06-10T01:18:01;23.30;97.50
23371;DHT22;11858;51.056;3.712;2023-06-10T01:20:28;23.30;97.30
23371;DHT22;11858;51.056;3.712;2023-06-10T01:22:55;23.30;97.70
23371;DHT22;11858;51.056;3.712;2023-06-10T01:25:22;23.20;97.80
23371;DHT22;11858;51.056;3.712;2023-06-10T01:28:36;23.30;98.00
23371;DHT22;11858;51.056;3.712;2023-06-10T01:33:36;23.30;98.30
23371;DHT22;11858;51.056;3.712;2023-06-10T01:36:03;23.20;98.90
23371;DHT22;11858;51.056;3.712;2023-06-10T01:38:36;23.20;99.40
23371;DHT22;11858;51.056;3.712;2023-06-10T01:41:03;23.00;99.90
23371;DHT22;11858;51.056;3.712;2023-06-10T01:43:33;23.00;99.90
23371;DHT22;11858;51.056;3.712;2023-06-10T01:45:59;22.90;99.90
23371;DHT22;11858;51.056;3.712;2023-06-10T01:48:24;23.10;99.90
23371;DHT22;11858;51.056;3.712;2023-06-10T01:50:50;23.00;99.90
23371;DHT22;11858;51.056;3.712;2023-06-10T01:53:16;22.90;99.90
23371;DHT22;11858;51.056;3.712;2023-06-10T01:55:41;22.90;99.90
23371;DHT22;11858;51.056;3.712;2023-06-10T01:58:07;22.90;99.90
23371;DHT22;11858;51.056;3.712;2023-06-10T02:00:33;22.90;99.90
23371;DHT22;11858;51.056;3.712;2023-06-10T02:02:58;22.90;99.90
23371;DHT22;11858;51.056;3.712;2023-06-10T02:05:24;22.80;99.90
23371;DHT22;11858;51.056;3.712;2023-06-10T02:07:50;22.80;99.90
23371;DHT22;11858;51.056;3.712;2023-06-10T02:10:16;22.90;99.90
23371;DHT22;11858;51.056;3.712;2023-06-10T02:12:42;22.90;99.90
23371;DHT22;11858;51.056;3.712;2023-06-10T02:15:07;22.70;99.90
23371;DHT22;11858;51.056;3.712;2023-06-10T02:17:33;22.70;99.90
23371;DHT22;11858;51.056;3.712;2023-06-10T02:19:59;22.70;99.90
23371;DHT22;11858;51.056;3.712;2023-06-10T02:22:25;22.60;99.90
23371;DHT22;11858;51.056;3.712;2023-06-10T02:24:51;22.70;99.90
23371;DHT22;11858;51.056;3.712;2023-06-10T02:27:18;22.50;99.90
23371;DHT22;11858;51.056;3.712;2023-06-10T02:29:44;22.50;99.90
23371;DHT22;11858;51.056;3.712;2023-06-10T02:32:10;22.40;99.90
23371;DHT22;11858;51.056;3.712;2023-06-10T02:34:35;22.30;99.90
23371;DHT22;11858;51.056;3.712;2023-06-10T02:37:02;22.40;99.90
23371;DHT22;11858;51.056;3.712;2023-06-10T02:39:28;22.30;99.90
23371;DHT22;11858;51.056;3.712;2023-06-10T02:41:53;22.30;99.90
23371;DHT22;11858;51.056;3.712;2023-06-10T02:44:19;22.30;99.90
23371;DHT22;11858;51.056;3.712;2023-06-10T02:46:45;22.30;99.90
23371;DHT22;11858;51.056;3.712;2023-06-10T02:49:12;22.40;99.90
23371;DHT22;11858;51.056;3.712;2023-06-10T02:51:38;22.30;99.90
23371;DHT22;11858;51.056;3.712;2023-06-10T02:54:04;22.30;99.90
23371;DHT22;11858;51.056;3.712;2023-06-10T02:56:30;22.20;99.90
23371;DHT22;11858;51.056;3.712;2023-06-10T02:58:57;22.20;99.90
23371;DHT22;11858;51.056;3.712;2023-06-10T03:01:23;22.00;99.90
23371;DHT22;11858;51.056;3.712;2023-06-10T03:03:48;21.90;99.90
23371;DHT22;11858;51.056;3.712;2023-06-10T03:06:15;21.90;99.90
23371;DHT22;11858;51.056;3.712;2023-06-10T03:08:41;21.80;99.90
23371;DHT22;11858;51.056;3.712;2023-06-10T03:11:07;21.90;99.90
23371;DHT22;11858;51.056;3.712;2023-06-10T03:13:32;21.80;99.90
23371;DHT22;11858;51.056;3.712;2023-06-10T03:15:58;21.70;99.90
23371;DHT22;11858;51.056;3.712;2023-06-10T03:18:27;21.80;99.90
23371;DHT22;11858;51.056;3.712;2023-06-10T03:20:54;21.90;99.90
23371;DHT22;11858;51.056;3.712;2023-06-10T03:23:20;21.90;99.90
23371;DHT22;11858;51.056;3.712;2023-06-10T03:25:46;21.90;99.90
23371;DHT22;11858;51.056;3.712;2023-06-10T03:28:12;21.80;99.90
23371;DHT22;11858;51.056;3.712;2023-06-10T03:30:38;21.80;99.90
23371;DHT22;11858;51.056;3.712;2023-06-10T03:33:03;21.70;99.90
23371;DHT22;11858;51.056;3.712;2023-06-10T03:35:29;21.70;99.90
23371;DHT22;11858;51.056;3.712;2023-06-10T03:37:55;21.70;99.90
23371;DHT22;11858;51.056;3.712;2023-06-10T03:40:21;21.60;99.90
23371;DHT22;11858;51.056;3.712;2023-06-10T03:42:46;21.50;99.90
23371;DHT22;11858;51.056;3.712;2023-06-10T03:45:12;21.60;99.90
23371;DHT22;11858;51.056;3.712;2023-06-10T03:47:38;21.60;99.90
23371;DHT22;11858;51.056;3.712;2023-06-10T03:50:07;21.50;99.90
23371;DHT22;11858;51.056;3.712;2023-06-10T03:52:33;21.50;99.90
23371;DHT22;11858;51.056;3.712;2023-06-10T03:54:59;21.60;99.90
23371;DHT22;11858;51.056;3.712;2023-06-10T03:57:25;21.60;99.90
23371;DHT22;11858;51.056;3.712;2023-06-10T03:59:51;21.50;99.90
23371;DHT22;11858;51.056;3.712;2023-06-10T04:02:16;21.60;99.90
23371;DHT22;11858;51.056;3.712;2023-06-10T04:04:43;21.50;99.90
23371;DHT22;11858;51.056;3.712;2023-06-10T04:07:08;21.50;99.90
23371;DHT22;11858;51.056;3.712;2023-06-10T04:09:34;21.40;99.90
23371;DHT22;11858;51.056;3.712;2023-06-10T04:12:01;21.40;99.90
23371;DHT22;11858;51.056;3.712;2023-06-10T04:14:27;21.50;99.90
23371;DHT22;11858;51.056;3.712;2023-06-10T04:16:53;21.50;99.90
23371;DHT22;11858;51.056;3.712;2023-06-10T04:19:18;21.50;99.90
23371;DHT22;11858;51.056;3.712;2023-06-10T04:21:45;21.50;99.90
23371;DHT22;11858;51.056;3.712;2023-06-10T04:24:11;21.50;99.90
23371;DHT22;11858;51.056;3.712;2023-06-10T04:26:37;21.50;99.90
23371;DHT22;11858;51.056;3.712;2023-06-10T04:29:04;21.40;99.90
23371;DHT22;11858;51.056;3.712;2023-06-10T04:31:29;21.40;99.90
23371;DHT22;11858;51.056;3.712;2023-06-10T04:33:55;21.50;99.90
23371;DHT22;11858;51.056;3.712;2023-06-10T04:36:21;21.60;99.90
23371;DHT22;11858;51.056;3.712;2023-06-10T04:38:46;21.60;99.90
23371;DHT22;11858;51.056;3.712;2023-06-10T04:41:12;21.70;99.90
23371;DHT22;11858;51.056;3.712;2023-06-10T04:43:38;21.70;99.90
23371;DHT22;11858;51.056;3.712;2023-06-10T04:46:04;21.70;99.90
23371;DHT22;11858;51.056;3.712;2023-06-10T04:48:30;21.70;99.90
23371;DHT22;11858;51.056;3.712;2023-06-10T04:50:55;21.70;99.90
23371;DHT22;11858;51.056;3.712;2023-06-10T04:53:22;21.80;99.90
23371;DHT22;11858;51.056;3.712;2023-06-10T04:55:48;21.70;99.90
23371;DHT22;11858;51.056;3.712;2023-06-10T04:58:14;21.80;99.90
23371;DHT22;11858;51.056;3.712;2023-06-10T05:00:40;22.10;99.90
23371;DHT22;11858;51.056;3.712;2023-06-10T05:03:05;22.10;99.90
23371;DHT22;11858;51.056;3.712;2023-06-10T05:05:31;22.00;99.90
23371;DHT22;11858;51.056;3.712;2023-06-10T05:07:57;22.30;99.90
23371;DHT22;11858;51.056;3.712;2023-06-10T05:10:22;22.20;99.90
23371;DHT22;11858;51.056;3.712;2023-06-10T05:12:48;22.30;99.90
23371;DHT22;11858;51.056;3.712;2023-06-10T05:15:14;22.30;99.90
23371;DHT22;11858;51.056;3.712;2023-06-10T05:17:39;22.30;99.90
23371;DHT22;11858;51.056;3.712;2023-06-10T05:20:05;22.30;99.90
23371;DHT22;11858;51.056;3.712;2023-06-10T05:22:31;22.40;99.90
23371;DHT22;11858;51.056;3.712;2023-06-10T05:24:57;22.50;99.90
23371;DHT22;11858;51.056;3.712;2023-06-10T05:27:23;22.50;99.90
23371;DHT22;11858;51.056;3.712;2023-06-10T05:29:49;22.50;99.90
23371;DHT22;11858;51.056;3.712;2023-06-10T05:32:17;22.60;99.90
23371;DHT22;11858;51.056;3.712;2023-06-10T05:34:43;22.70;99.90
23371;DHT22;11858;51.056;3.712;2023-06-10T05:37:08;22.80;99.90
23371;DHT22;11858;51.056;3.712;2023-06-10T05:39:35;22.70;99.90
23371;DHT22;11858;51.056;3.712;2023-06-10T05:42:04;22.70;99.90
23371;DHT22;11858;51.056;3.712;2023-06-10T05:44:29;22.70;99.90
23371;DHT22;11858;51.056;3.712;2023-06-10T05:46:55;22.90;99.90
23371;DHT22;11858;51.056;3.712;2023-06-10T05:49:21;23.00;99.90
23371;DHT22;11858;51.056;3.712;2023-06-10T05:51:46;23.20;99.90
23371;DHT22;11858;51.056;3.712;2023-06-10T05:54:12;23.20;99.90
23371;DHT22;11858;51.056;3.712;2023-06-10T05:56:37;23.10;99.90
23371;DHT22;11858;51.056;3.712;2023-06-10T05:59:03;23.20;99.90
23371;DHT22;11858;51.056;3.712;2023-06-10T06:01:29;23.20;99.90
23371;DHT22;11858;51.056;3.712;2023-06-10T06:03:54;23.30;99.90
23371;DHT22;11858;51.056;3.712;2023-06-10T06:06:20;23.40;99.90
23371;DHT22;11858;51.056;3.712;2023-06-10T06:08:46;23.40;99.90
23371;DHT22;11858;51.056;3.712;2023-06-10T06:11:12;23.50;99.90
23371;DHT22;11858;51.056;3.712;2023-06-10T06:13:37;23.40;99.90
23371;DHT22;11858;51.056;3.712;2023-06-10T06:16:03;23.40;99.90
23371;DHT22;11858;51.056;3.712;2023-06-10T06:18:29;23.60;99.90
23371;DHT22;11858;51.056;3.712;2023-06-10T06:20:54;23.70;99.90
23371;DHT22;11858;51.056;3.712;2023-06-10T06:23:20;23.80;99.90
23371;DHT22;11858;51.056;3.712;2023-06-10T06:25:45;23.80;99.90
23371;DHT22;11858;51.056;3.712;2023-06-10T06:28:11;23.80;99.90
23371;DHT22;11858;51.056;3.712;2023-06-10T06:30:37;24.00;99.90
23371;DHT22;11858;51.056;3.712;2023-06-10T06:33:02;23.90;99.90
23371;DHT22;11858;51.056;3.712;2023-06-10T06:35:32;24.10;99.90
23371;DHT22;11858;51.056;3.712;2023-06-10T06:37:57;24.20;99.90
23371;DHT22;11858;51.056;3.712;2023-06-10T06:40:24;24.30;99.90
23371;DHT22;11858;51.056;3.712;2023-06-10T06:42:50;24.20;99.90
23371;DHT22;11858;51.056;3.712;2023-06-10T06:45:15;24.30;99.90
23371;DHT22;11858;51.056;3.712;2023-06-10T06:47:41;24.40;99.90
23371;DHT22;11858;51.056;3.712;2023-06-10T06:50:07;24.50;99.90
23371;DHT22;11858;51.056;3.712;2023-06-10T06:52:33;24.50;99.90
23371;DHT22;11858;51.056;3.712;2023-06-10T06:54:58;24.60;99.90
23371;DHT22;11858;51.056;3.712;2023-06-10T06:57:24;24.80;99.90
23371;DHT22;11858;51.056;3.712;2023-06-10T06:59:49;24.90;99.90
23371;DHT22;11858;51.056;3.712;2023-06-10T07:02:15;25.00;99.90
23371;DHT22;11858;51.056;3.712;2023-06-10T07:04:41;25.10;99.90
23371;DHT22;11858;51.056;3.712;2023-06-10T07:07:08;25.20;99.90
23371;DHT22;11858;51.056;3.712;2023-06-10T07:09:37;25.30;99.90
23371;DHT22;11858;51.056;3.712;2023-06-10T07:12:03;25.40;99.90
23371;DHT22;11858;51.056;3.712;2023-06-10T07:14:29;25.60;99.90
23371;DHT22;11858;51.056;3.712;2023-06-10T07:16:54;25.70;99.90
23371;DHT22;11858;51.056;3.712;2023-06-10T07:19:20;25.70;99.90
23371;DHT22;11858;51.056;3.712;2023-06-10T07:21:46;25.70;99.90
23371;DHT22;11858;51.056;3.712;2023-06-10T07:24:11;25.80;99.90
23371;DHT22;11858;51.056;3.712;2023-06-10T07:26:37;25.90;99.90
23371;DHT22;11858;51.056;3.712;2023-06-10T07:29:03;26.00;99.90
23371;DHT22;11858;51.056;3.712;2023-06-10T07:31:28;26.10;99.90
23371;DHT22;11858;51.056;3.712;2023-06-10T07:33:54;26.20;99.90
23371;DHT22;11858;51.056;3.712;2023-06-10T07:36:20;26.20;99.90
23371;DHT22;11858;51.056;3.712;2023-06-10T07:38:45;26.40;99.90
23371;DHT22;11858;51.056;3.712;2023-06-10T07:41:11;26.60;99.90
23371;DHT22;11858;51.056;3.712;2023-06-10T07:43:37;26.60;99.90
23371;DHT22;11858;51.056;3.712;2023-06-10T07:46:03;26.60;99.90
23371;DHT22;11858;51.056;3.712;2023-06-10T07:48:30;26.60;99.90
23371;DHT22;11858;51.056;3.712;2023-06-10T07:50:56;26.80;99.90
23371;DHT22;11858;51.056;3.712;2023-06-10T07:53:22;27.00;99.90
23371;DHT22;11858;51.056;3.712;2023-06-10T07:55:47;27.20;99.90
23371;DHT22;11858;51.056;3.712;2023-06-10T07:58:13;27.40;99.90
23371;DHT22;11858;51.056;3.712;2023-06-10T08:00:39;27.50;99.90
23371;DHT22;11858;51.056;3.712;2023-06-10T08:03:04;27.60;99.90
23371;DHT22;11858;51.056;3.712;2023-06-10T08:05:30;27.70;99.90
23371;DHT22;11858;51.056;3.712;2023-06-10T08:07:56;27.90;99.90
23371;DHT22;11858;51.056;3.712;2023-06-10T08:10:21;28.00;99.90
23371;DHT22;11858;51.056;3.712;2023-06-10T08:12:47;28.10;99.90
23371;DHT22;11858;51.056;3.712;2023-06-10T08:15:12;28.10;99.90
23371;DHT22;11858;51.056;3.712;2023-06-10T08:17:38;28.20;99.90
23371;DHT22;11858;51.056;3.712;2023-06-10T08:20:06;28.40;99.90
23371;DHT22;11858;51.056;3.712;2023-06-10T08:22:31;28.80;99.90
23371;DHT22;11858;51.056;3.712;2023-06-10T08:24:57;29.60;99.90
23371;DHT22;11858;51.056;3.712;2023-06-10T08:27:23;30.40;99.90
23371;DHT22;11858;51.056;3.712;2023-06-10T08:29:48;31.10;99.90
23371;DHT22;11858;51.056;3.712;2023-06-10T08:32:14;31.60;99.90
23371;DHT22;11858;51.056;3.712;2023-06-10T08:34:40;31.80;98.40
23371;DHT22;11858;51.056;3.712;2023-06-10T08:37:06;32.00;97.50
23371;DHT22;11858;51.056;3.712;2023-06-10T08:39:32;32.60;96.10
23371;DHT22;11858;51.056;3.712;2023-06-10T08:44:36;32.90;93.90
23371;DHT22;11858;51.056;3.712;2023-06-10T08:47:16;33.10;92.80
23371;DHT22;11858;51.056;3.712;2023-06-10T08:49:47;33.50;92.60
23371;DHT22;11858;51.056;3.712;2023-06-10T08:52:20;33.70;91.80
23371;DHT22;11858;51.056;3.712;2023-06-10T08:54:52;34.20;90.00
23371;DHT22;11858;51.056;3.712;2023-06-10T08:57:20;34.20;88.00
23371;DHT22;11858;51.056;3.712;2023-06-10T08:59:47;34.70;86.30
23371;DHT22;11858;51.056;3.712;2023-06-10T09:02:14;34.40;85.70
23371;DHT22;11858;51.056;3.712;2023-06-10T09:04:42;34.10;85.00
23371;DHT22;11858;51.056;3.712;2023-06-10T09:07:09;34.30;84.50
23371;DHT22;11858;51.056;3.712;2023-06-10T09:09:36;34.70;83.70
23371;DHT22;11858;51.056;3.712;2023-06-10T09:12:03;34.80;83.10
23371;DHT22;11858;51.056;3.712;2023-06-10T09:14:29;35.10;81.70
23371;DHT22;11858;51.056;3.712;2023-06-10T09:16:55;35.30;80.20
23371;DHT22;11858;51.056;3.712;2023-06-10T09:19:24;35.20;80.40
23371;DHT22;11858;51.056;3.712;2023-06-10T09:21:50;35.90;78.90
23371;DHT22;11858;51.056;3.712;2023-06-10T09:24:16;36.00;78.00
23371;DHT22;11858;51.056;3.712;2023-06-10T09:26:43;36.30;77.20
23371;DHT22;11858;51.056;3.712;2023-06-10T09:29:09;36.20;76.10
23371;DHT22;11858;51.056;3.712;2023-06-10T09:31:38;36.20;74.70
23371;DHT22;11858;51.056;3.712;2023-06-10T09:34:12;36.40;73.90
23371;DHT22;11858;51.056;3.712;2023-06-10T09:36:39;36.10;74.10
23371;DHT22;11858;51.056;3.712;2023-06-10T09:39:12;36.20;73.50
23371;DHT22;11858;51.056;3.712;2023-06-10T09:41:40;36.20;73.70
23371;DHT22;11858;51.056;3.712;2023-06-10T09:44:15;36.60;71.70
23371;DHT22;11858;51.056;3.712;2023-06-10T09:46:42;37.10;71.50
23371;DHT22;11858;51.056;3.712;2023-06-10T09:49:08;37.20;70.40
23371;DHT22;11858;51.056;3.712;2023-06-10T09:51:33;37.10;70.40
23371;DHT22;11858;51.056;3.712;2023-06-10T09:54:02;37.30;69.40
23371;DHT22;11858;51.056;3.712;2023-06-10T09:56:35;37.30;68.80
23371;DHT22;11858;51.056;3.712;2023-06-10T09:59:01;37.60;67.40
23371;DHT22;11858;51.056;3.712;2023-06-10T10:01:28;37.50;66.80
23371;DHT22;11858;51.056;3.712;2023-06-10T10:03:54;37.50;67.10
23371;DHT22;11858;51.056;3.712;2023-06-10T10:06:20;38.00;66.70
23371;DHT22;11858;51.056;3.712;2023-06-10T10:08:47;37.90;66.10
23371;DHT22;11858;51.056;3.712;2023-06-10T10:11:16;37.70;66.30
23371;DHT22;11858;51.056;3.712;2023-06-10T10:13:44;37.80;65.20
23371;DHT22;11858;51.056;3.712;2023-06-10T10:16:13;37.40;64.60
23371;DHT22;11858;51.056;3.712;2023-06-10T10:18:43;37.20;65.00
23371;DHT22;11858;51.056;3.712;2023-06-10T10:21:13;37.50;66.50
23371;DHT22;11858;51.056;3.712;2023-06-10T10:23:58;37.60;64.20
23371;DHT22;11858;51.056;3.712;2023-06-10T10:26:27;37.90;63.20
23371;DHT22;11858;51.056;3.712;2023-06-10T10:29:20;38.40;62.20
23371;DHT22;11858;51.056;3.712;2023-06-10T10:31:51;38.00;61.20
23371;DHT22;11858;51.056;3.712;2023-06-10T10:37:07;38.40;60.30
23371;DHT22;11858;51.056;3.712;2023-06-10T10:39:34;38.20;59.80
23371;DHT22;11858;51.056;3.712;2023-06-10T10:42:00;38.40;60.90
23371;DHT22;11858;51.056;3.712;2023-06-10T10:44:29;38.60;58.70
23371;DHT22;11858;51.056;3.712;2023-06-10T10:46:55;38.90;57.80
23371;DHT22;11858;51.056;3.712;2023-06-10T10:49:22;38.90;57.70
23371;DHT22;11858;51.056;3.712;2023-06-10T10:51:57;38.90;58.30
23371;DHT22;11858;51.056;3.712;2023-06-10T10:57:12;39.80;56.50
23371;DHT22;11858;51.056;3.712;2023-06-10T10:59:57;40.40;55.00
23371;DHT22;11858;51.056;3.712;2023-06-10T11:02:45;40.20;54.10
23371;DHT22;11858;51.056;3.712;2023-06-10T11:05:15;39.70;54.40
23371;DHT22;11858;51.056;3.712;2023-06-10T11:07:52;39.80;54.80
23371;DHT22;11858;51.056;3.712;2023-06-10T11:10:20;40.20;53.10
23371;DHT22;11858;51.056;3.712;2023-06-10T11:12:54;40.30;52.50
23371;DHT22;11858;51.056;3.712;2023-06-10T11:15:25;39.90;51.20
23371;DHT22;11858;51.056;3.712;2023-06-10T11:20:57;40.10;52.50
23371;DHT22;11858;51.056;3.712;2023-06-10T11:28:41;39.70;51.20
23371;DHT22;11858;51.056;3.712;2023-06-10T11:31:09;40.10;51.00
23371;DHT22;11858;51.056;3.712;2023-06-10T11:33:43;40.40;49.60
23371;DHT22;11858;51.056;3.712;2023-06-10T11:36:09;40.20;49.70
23371;DHT22;11858;51.056;3.712;2023-06-10T11:38:35;40.30;49.30
23371;DHT22;11858;51.056;3.712;2023-06-10T11:41:02;39.80;48.70
23371;DHT22;11858;51.056;3.712;2023-06-10T11:43:28;40.00;49.90
23371;DHT22;11858;51.056;3.712;2023-06-10T11:45:55;40.00;49.30
23371;DHT22;11858;51.056;3.712;2023-06-10T11:48:21;40.10;49.10
23371;DHT22;11858;51.056;3.712;2023-06-10T11:50:47;40.10;48.10
23371;DHT22;11858;51.056;3.712;2023-06-10T11:53:12;40.50;48.10
23371;DHT22;11858;51.056;3.712;2023-06-10T11:55:46;40.70;48.30
23371;DHT22;11858;51.056;3.712;2023-06-10T11:58:16;40.80;47.10
23371;DHT22;11858;51.056;3.712;2023-06-10T12:00:53;41.00;46.90
23371;DHT22;11858;51.056;3.712;2023-06-10T12:03:20;41.40;45.50
23371;DHT22;11858;51.056;3.712;2023-06-10T12:08:23;41.70;44.80
23371;DHT22;11858;51.056;3.712;2023-06-10T12:10:49;41.60;44.90
23371;DHT22;11858;51.056;3.712;2023-06-10T12:13:15;41.10;45.40
23371;DHT22;11858;51.056;3.712;2023-06-10T12:15:43;40.80;45.40
23371;DHT22;11858;51.056;3.712;2023-06-10T12:18:19;40.60;44.80
23371;DHT22;11858;51.056;3.712;2023-06-10T12:20:45;40.80;45.80
23371;DHT22;11858;51.056;3.712;2023-06-10T12:23:12;41.20;44.80
23371;DHT22;11858;51.056;3.712;2023-06-10T12:25:39;41.30;44.40
23371;DHT22;11858;51.056;3.712;2023-06-10T12:28:05;41.70;44.10
23371;DHT22;11858;51.056;3.712;2023-06-10T12:30:34;42.10;43.20
23371;DHT22;11858;51.056;3.712;2023-06-10T12:32:59;42.10;43.30
23371;DHT22;11858;51.056;3.712;2023-06-10T12:35:28;42.50;43.20
23371;DHT22;11858;51.056;3.712;2023-06-10T12:38:01;42.40;42.90
23371;DHT22;11858;51.056;3.712;2023-06-10T12:40:29;42.60;42.80
23371;DHT22;11858;51.056;3.712;2023-06-10T12:42:57;42.40;42.60
23371;DHT22;11858;51.056;3.712;2023-06-10T12:45:31;42.60;42.30
23371;DHT22;11858;51.056;3.712;2023-06-10T12:48:09;42.60;42.30
23371;DHT22;11858;51.056;3.712;2023-06-10T12:50:36;42.60;42.80
23371;DHT22;11858;51.056;3.712;2023-06-10T12:53:03;42.70;42.00
23371;DHT22;11858;51.056;3.712;2023-06-10T12:55:29;42.50;42.70
23371;DHT22;11858;51.056;3.712;2023-06-10T12:57:55;42.70;42.40
23371;DHT22;11858;51.056;3.712;2023-06-10T13:00:22;42.90;42.40
23371;DHT22;11858;51.056;3.712;2023-06-10T13:02:51;42.80;41.90
23371;DHT22;11858;51.056;3.712;2023-06-10T13:05:18;42.20;42.10
23371;DHT22;11858;51.056;3.712;2023-06-10T13:07:44;42.30;42.10
23371;DHT22;11858;51.056;3.712;2023-06-10T13:10:10;41.90;41.70
23371;DHT22;11858;51.056;3.712;2023-06-10T13:12:35;42.40;42.10
23371;DHT22;11858;51.056;3.712;2023-06-10T13:15:02;41.80;41.70
23371;DHT22;11858;51.056;3.712;2023-06-10T13:17:28;41.50;42.60
23371;DHT22;11858;51.056;3.712;2023-06-10T13:19:53;42.00;42.70
23371;DHT22;11858;51.056;3.712;2023-06-10T13:22:19;42.30;41.70
23371;DHT22;11858;51.056;3.712;2023-06-10T13:24:45;42.60;41.80
23371;DHT22;11858;51.056;3.712;2023-06-10T13:27:12;42.40;41.10
23371;DHT22;11858;51.056;3.712;2023-06-10T13:29:39;42.20;41.20
23371;DHT22;11858;51.056;3.712;2023-06-10T13:32:06;42.40;41.60
23371;DHT22;11858;51.056;3.712;2023-06-10T13:34:32;42.60;40.90
23371;DHT22;11858;51.056;3.712;2023-06-10T13:36:57;43.20;40.90
23371;DHT22;11858;51.056;3.712;2023-06-10T13:39:23;43.30;40.80
23371;DHT22;11858;51.056;3.712;2023-06-10T13:41:49;43.30;41.00
23371;DHT22;11858;51.056;3.712;2023-06-10T13:44:15;43.00;40.70
23371;DHT22;11858;51.056;3.712;2023-06-10T13:46:40;42.10;40.90
23371;DHT22;11858;51.056;3.712;2023-06-10T13:49:06;41.10;41.20
23371;DHT22;11858;51.056;3.712;2023-06-10T13:51:31;40.40;41.80
23371;DHT22;11858;51.056;3.712;2023-06-10T13:53:57;40.80;41.80
23371;DHT22;11858;51.056;3.712;2023-06-10T13:56:23;41.30;41.80
23371;DHT22;11858;51.056;3.712;2023-06-10T13:58:48;40.80;41.70
23371;DHT22;11858;51.056;3.712;2023-06-10T14:01:14;41.00;41.90
23371;DHT22;11858;51.056;3.712;2023-06-10T14:03:40;41.50;41.80
23371;DHT22;11858;51.056;3.712;2023-06-10T14:06:05;41.60;41.50
23371;DHT22;11858;51.056;3.712;2023-06-10T14:08:31;41.70;42.00
23371;DHT22;11858;51.056;3.712;2023-06-10T14:10:57;41.90;41.30
23371;DHT22;11858;51.056;3.712;2023-06-10T14:13:24;41.80;41.40
23371;DHT22;11858;51.056;3.712;2023-06-10T14:15:49;42.70;41.40
23371;DHT22;11858;51.056;3.712;2023-06-10T14:18:15;42.50;40.90
23371;DHT22;11858;51.056;3.712;2023-06-10T14:20:40;42.40;41.60
23371;DHT22;11858;51.056;3.712;2023-06-10T14:23:06;42.90;41.00
23371;DHT22;11858;51.056;3.712;2023-06-10T14:25:32;43.20;41.00
23371;DHT22;11858;51.056;3.712;2023-06-10T14:27:57;43.50;40.10
23371;DHT22;11858;51.056;3.712;2023-06-10T14:30:23;43.70;40.30
23371;DHT22;11858;51.056;3.712;2023-06-10T14:32:49;43.40;40.40
23371;DHT22;11858;51.056;3.712;2023-06-10T14:35:14;43.00;40.00
23371;DHT22;11858;51.056;3.712;2023-06-10T14:37:40;42.50;40.10
23371;DHT22;11858;51.056;3.712;2023-06-10T14:40:06;41.70;40.70
23371;DHT22;11858;51.056;3.712;2023-06-10T14:42:32;40.70;41.80
23371;DHT22;11858;51.056;3.712;2023-06-10T14:44:58;40.20;42.40
23371;DHT22;11858;51.056;3.712;2023-06-10T14:47:25;39.60;42.60
23371;DHT22;11858;51.056;3.712;2023-06-10T14:49:51;40.00;42.30
23371;DHT22;11858;51.056;3.712;2023-06-10T14:52:17;40.80;41.70
23371;DHT22;11858;51.056;3.712;2023-06-10T14:54:42;41.40;41.40
23371;DHT22;11858;51.056;3.712;2023-06-10T14:57:08;41.60;40.70
23371;DHT22;11858;51.056;3.712;2023-06-10T14:59:34;41.70;41.10
23371;DHT22;11858;51.056;3.712;2023-06-10T15:02:00;41.80;40.20
23371;DHT22;11858;51.056;3.712;2023-06-10T15:04:29;41.60;40.70
23371;DHT22;11858;51.056;3.712;2023-06-10T15:06:54;41.60;41.60
23371;DHT22;11858;51.056;3.712;2023-06-10T15:09:20;41.80;41.10
23371;DHT22;11858;51.056;3.712;2023-06-10T15:11:46;42.10;40.30
23371;DHT22;11858;51.056;3.712;2023-06-10T15:14:12;42.30;39.90
23371;DHT22;11858;51.056;3.712;2023-06-10T15:16:37;42.20;39.80
23371;DHT22;11858;51.056;3.712;2023-06-10T15:19:03;42.50;40.00
23371;DHT22;11858;51.056;3.712;2023-06-10T15:21:29;42.80;39.70
23371;DHT22;11858;51.056;3.712;2023-06-10T15:23:54;42.90;39.50
23371;DHT22;11858;51.056;3.712;2023-06-10T15:26:20;42.70;39.20
23371;DHT22;11858;51.056;3.712;2023-06-10T15:28:46;41.90;39.70
23371;DHT22;11858;51.056;3.712;2023-06-10T15:31:11;41.60;40.40
23371;DHT22;11858;51.056;3.712;2023-06-10T15:33:37;41.70;40.30
23371;DHT22;11858;51.056;3.712;2023-06-10T15:36:03;41.60;39.80
23371;DHT22;11858;51.056;3.712;2023-06-10T15:38:30;41.20;41.10
23371;DHT22;11858;51.056;3.712;2023-06-10T15:40:55;41.40;40.80
23371;DHT22;11858;51.056;3.712;2023-06-10T15:43:21;40.70;41.20
23371;DHT22;11858;51.056;3.712;2023-06-10T15:45:47;39.70;41.50
23371;DHT22;11858;51.056;3.712;2023-06-10T15:48:12;39.20;41.90
23371;DHT22;11858;51.056;3.712;2023-06-10T15:50:38;39.00;42.50